createdAt,value
2017-10-16T00:02:16.884Z,10.60
2017-10-16T00:04:44.575Z,10.70
2017-10-16T00:07:12.977Z,10.60
2017-10-16T00:09:40.606Z,10.60
2017-10-16T00:12:08.275Z,10.70
2017-10-16T00:14:35.939Z,10.70
2017-10-16T00:17:03.580Z,10.70
2017-10-16T00:19:31.240Z,10.60
2017-10-16T00:21:58.873Z,10.60
2017-10-16T00:24:26.508Z,10.60
2017-10-16T00:26:54.175Z,10.70
2017-10-16T00:29:21.814Z,10.60
2017-10-16T00:31:50.182Z,10.60
2017-10-16T00:34:17.848Z,10.60
2017-10-16T00:36:45.533Z,10.60
2017-10-16T00:39:13.163Z,10.50
2017-10-16T00:41:40.825Z,10.40
2017-10-16T00:44:09.301Z,10.40
2017-10-16T00:46:36.972Z,10.40
2017-10-16T00:49:04.673Z,10.30
2017-10-16T00:51:33.101Z,10.30
2017-10-16T00:54:00.769Z,10.20
2017-10-16T00:56:29.198Z,10.30
2017-10-16T00:58:56.926Z,10.20
2017-10-16T01:01:24.561Z,10.20
2017-10-16T01:03:52.230Z,10.30
2017-10-16T01:06:19.865Z,10.20
2017-10-16T01:08:47.506Z,10.20
2017-10-16T01:11:15.287Z,10.20
2017-10-16T01:13:42.932Z,10.20
2017-10-16T01:16:10.565Z,10.20
2017-10-16T01:18:38.231Z,10.20
2017-10-16T01:21:05.902Z,10.20
2017-10-16T01:23:34.299Z,10.10
2017-10-16T01:26:02.009Z,10.00
2017-10-16T01:28:29.642Z,10.00
2017-10-16T01:30:57.416Z,10.00
2017-10-16T01:33:25.924Z,9.90
2017-10-16T01:35:54.772Z,9.90
2017-10-16T01:38:24.345Z,9.90
2017-10-16T01:40:53.372Z,9.80
2017-10-16T01:43:22.021Z,9.90
2017-10-16T01:45:50.997Z,9.90
2017-10-16T01:48:19.901Z,9.90
2017-10-16T01:50:49.360Z,9.80
2017-10-16T01:53:17.221Z,10.00
2017-10-16T01:55:44.884Z,9.90
2017-10-16T01:58:12.511Z,9.90
2017-10-16T02:00:40.125Z,9.80
2017-10-16T02:03:07.790Z,9.80
2017-10-16T02:05:36.349Z,9.80
2017-10-16T02:08:04.067Z,9.70
2017-10-16T02:10:31.734Z,9.70
2017-10-16T02:12:59.360Z,9.80
2017-10-16T02:15:27.074Z,9.80
2017-10-16T02:17:54.725Z,9.70
2017-10-16T02:20:22.359Z,9.80
2017-10-16T02:22:50.072Z,9.80
2017-10-16T02:25:18.510Z,9.80
2017-10-16T02:27:46.291Z,9.70
2017-10-16T02:30:14.674Z,9.70
2017-10-16T02:32:42.329Z,9.70
2017-10-16T02:35:09.946Z,9.70
2017-10-16T02:37:38.347Z,9.60
2017-10-16T02:40:06.167Z,9.60
2017-10-16T02:42:34.563Z,9.60
2017-10-16T02:45:02.211Z,9.60
2017-10-16T02:47:29.885Z,9.60
2017-10-16T02:49:57.543Z,9.60
2017-10-16T02:52:25.190Z,9.60
2017-10-16T02:54:52.967Z,9.60
2017-10-16T02:57:21.350Z,9.50
2017-10-16T02:59:48.977Z,9.50
2017-10-16T03:02:17.439Z,9.60
2017-10-16T03:04:45.062Z,9.50
2017-10-16T03:07:12.970Z,9.50
2017-10-16T03:09:40.632Z,9.50
2017-10-16T03:12:08.267Z,9.40
2017-10-16T03:14:36.160Z,9.50
2017-10-16T03:17:03.828Z,9.40
2017-10-16T03:19:31.569Z,9.40
2017-10-16T03:21:59.191Z,9.40
2017-10-16T03:24:26.910Z,9.40
2017-10-16T03:26:54.538Z,9.50
2017-10-16T03:29:22.181Z,9.50
2017-10-16T03:31:50.318Z,9.40
2017-10-16T03:34:18.724Z,9.30
2017-10-16T03:36:46.352Z,9.30
2017-10-16T03:39:14.016Z,9.30
2017-10-16T03:41:41.640Z,9.30
2017-10-16T03:44:10.035Z,9.20
2017-10-16T03:46:37.695Z,9.20
2017-10-16T03:49:05.360Z,9.30
2017-10-16T03:51:32.995Z,9.30
2017-10-16T03:54:00.658Z,9.30
2017-10-16T03:56:28.299Z,9.20
2017-10-16T03:58:56.159Z,9.20
2017-10-16T04:01:23.819Z,9.20
2017-10-16T04:03:51.482Z,9.10
2017-10-16T04:06:19.155Z,9.10
2017-10-16T04:08:46.890Z,9.20
2017-10-16T04:11:14.515Z,9.10
2017-10-16T04:13:42.137Z,9.10
2017-10-16T04:16:09.783Z,9.10
2017-10-16T04:18:37.417Z,9.20
2017-10-16T04:21:06.047Z,9.10
2017-10-16T04:23:33.738Z,9.10
2017-10-16T04:26:01.380Z,9.10
2017-10-16T04:28:29.020Z,9.10
2017-10-16T04:30:56.721Z,9.10
2017-10-16T04:33:25.181Z,9.10
2017-10-16T04:35:52.949Z,9.00
2017-10-16T04:38:20.608Z,9.10
2017-10-16T04:40:48.239Z,9.00
2017-10-16T04:43:15.891Z,9.00
2017-10-16T04:45:44.999Z,9.00
2017-10-16T04:48:12.663Z,9.00
2017-10-16T04:50:40.319Z,9.00
2017-10-16T04:53:07.982Z,8.90
2017-10-16T04:55:36.369Z,8.90
2017-10-16T04:58:03.993Z,8.80
2017-10-16T05:00:31.735Z,8.90
2017-10-16T05:02:59.370Z,8.90
2017-10-16T05:05:27.086Z,8.90
2017-10-16T05:07:54.806Z,8.90
2017-10-16T05:10:23.194Z,8.90
2017-10-16T05:12:50.820Z,8.80
2017-10-16T05:15:18.499Z,8.90
2017-10-16T05:17:46.269Z,9.00
2017-10-16T05:20:13.911Z,8.90
2017-10-16T05:22:41.583Z,9.00
2017-10-16T05:25:09.214Z,8.90
2017-10-16T05:27:36.858Z,8.80
2017-10-16T05:30:04.542Z,8.80
2017-10-16T05:32:32.929Z,8.90
2017-10-16T05:35:00.567Z,8.90
2017-10-16T05:37:28.240Z,9.00
2017-10-16T05:39:56.206Z,8.90
2017-10-16T05:42:23.839Z,8.90
2017-10-16T05:44:51.506Z,9.00
2017-10-16T05:47:19.157Z,8.90
2017-10-16T05:49:46.891Z,8.90
2017-10-16T05:52:15.438Z,9.00
2017-10-16T05:54:43.059Z,9.00
2017-10-16T05:57:10.695Z,9.00
2017-10-16T05:59:39.167Z,9.10
2017-10-16T06:02:07.556Z,9.10
2017-10-16T06:04:35.950Z,9.00
2017-10-16T06:07:03.610Z,9.20
2017-10-16T06:09:31.245Z,9.30
2017-10-16T06:11:58.862Z,9.30
2017-10-16T06:14:26.535Z,9.30
2017-10-16T06:16:54.224Z,9.30
2017-10-16T06:19:21.877Z,9.40
2017-10-16T06:21:50.332Z,9.40
2017-10-16T06:24:17.961Z,9.30
2017-10-16T06:26:45.806Z,9.50
2017-10-16T06:29:13.468Z,9.50
2017-10-16T06:31:41.097Z,9.60
2017-10-16T06:34:08.748Z,9.60
2017-10-16T06:36:36.418Z,9.70
2017-10-16T06:39:04.849Z,10.10
2017-10-16T06:41:32.487Z,10.10
2017-10-16T06:44:00.146Z,10.20
2017-10-16T06:46:27.786Z,10.30
2017-10-16T06:48:55.434Z,10.50
2017-10-16T06:51:23.121Z,10.60
2017-10-16T06:53:51.570Z,10.70
2017-10-16T06:56:19.201Z,10.60
2017-10-16T06:58:46.944Z,10.70
2017-10-16T07:01:14.585Z,10.70
2017-10-16T07:03:42.222Z,10.90
2017-10-16T07:06:09.895Z,10.90
2017-10-16T07:08:37.526Z,11.00
2017-10-16T07:11:05.177Z,11.10
2017-10-16T07:13:33.030Z,11.10
2017-10-16T07:16:00.682Z,11.30
2017-10-16T07:18:28.322Z,11.30
2017-10-16T07:20:56.213Z,11.40
2017-10-16T07:23:24.626Z,11.70
2017-10-16T07:25:52.263Z,11.60
2017-10-16T07:28:19.930Z,11.70
2017-10-16T07:30:47.620Z,11.90
2017-10-16T07:33:15.275Z,11.90
2017-10-16T07:35:43.796Z,12.70
2017-10-16T07:38:11.446Z,12.60
2017-10-16T07:40:39.089Z,12.80
2017-10-16T07:43:06.867Z,12.90
2017-10-16T07:45:35.388Z,13.50
2017-10-16T07:48:03.022Z,13.50
2017-10-16T07:50:30.688Z,13.70
2017-10-16T07:52:58.418Z,14.00
2017-10-16T07:55:26.242Z,14.20
2017-10-16T07:57:54.023Z,14.30
2017-10-16T08:00:21.673Z,14.60
2017-10-16T08:02:49.319Z,14.90
2017-10-16T08:05:17.015Z,15.20
2017-10-16T08:07:45.414Z,15.80
2017-10-16T08:10:13.055Z,15.70
2017-10-16T08:12:40.699Z,16.60
2017-10-16T08:15:09.074Z,18.70
2017-10-16T08:17:36.800Z,18.60
2017-10-16T08:20:04.442Z,19.40
2017-10-16T08:22:32.042Z,20.20
2017-10-16T08:24:59.630Z,21.30
2017-10-16T08:27:27.313Z,21.70
2017-10-16T08:29:54.917Z,22.10
2017-10-16T08:32:22.519Z,22.50
2017-10-16T08:34:50.155Z,22.70
2017-10-16T08:37:17.758Z,23.30
2017-10-16T08:39:45.393Z,23.60
2017-10-16T08:42:13.031Z,23.70
2017-10-16T08:44:40.638Z,23.90
2017-10-16T08:47:08.253Z,23.60
2017-10-16T08:49:35.943Z,23.30
2017-10-16T08:52:03.549Z,24.30
2017-10-16T08:54:31.162Z,24.20
2017-10-16T08:56:58.798Z,24.20
2017-10-16T08:59:26.426Z,24.20
2017-10-16T09:01:54.017Z,24.10
2017-10-16T09:04:21.657Z,24.10
2017-10-16T09:06:49.260Z,24.00
2017-10-16T09:09:16.914Z,24.40
2017-10-16T09:11:44.556Z,25.00
2017-10-16T09:14:12.181Z,24.80
2017-10-16T09:16:39.788Z,25.50
2017-10-16T09:19:07.466Z,25.80
2017-10-16T09:21:35.092Z,26.00
2017-10-16T09:24:02.895Z,26.60
2017-10-16T09:26:30.526Z,26.50
2017-10-16T09:28:58.144Z,26.60
2017-10-16T09:31:26.529Z,26.40
2017-10-16T09:33:54.198Z,26.30
2017-10-16T09:36:21.810Z,26.00
2017-10-16T09:38:49.413Z,26.60
2017-10-16T09:41:17.181Z,27.10
2017-10-16T09:43:44.779Z,26.90
2017-10-16T09:46:12.388Z,26.70
2017-10-16T09:48:40.023Z,26.10
2017-10-16T09:51:07.651Z,26.10
2017-10-16T09:53:35.357Z,26.10
2017-10-16T09:56:02.999Z,25.80
2017-10-16T09:58:30.600Z,26.10
2017-10-16T10:00:58.199Z,26.00
2017-10-16T10:03:25.878Z,26.40
2017-10-16T10:05:53.489Z,26.30
2017-10-16T10:08:21.102Z,26.30
2017-10-16T10:10:48.741Z,26.90
2017-10-16T10:13:16.343Z,26.90
2017-10-16T10:15:43.952Z,26.50
2017-10-16T10:18:12.363Z,26.20
2017-10-16T10:20:39.988Z,26.10
2017-10-16T10:23:07.624Z,26.00
2017-10-16T10:25:35.363Z,24.70
2017-10-16T10:28:03.743Z,23.60
2017-10-16T10:30:31.350Z,23.50
2017-10-16T10:32:58.991Z,23.50
2017-10-16T10:35:26.755Z,23.40
2017-10-16T10:37:54.372Z,23.40
2017-10-16T10:40:22.023Z,23.40
2017-10-16T10:42:49.623Z,23.20
2017-10-16T10:45:17.302Z,22.90
2017-10-16T10:47:44.931Z,22.90
2017-10-16T10:50:12.530Z,22.70
2017-10-16T10:52:40.146Z,22.70
2017-10-16T10:55:07.790Z,22.90
2017-10-16T10:57:35.405Z,22.60
2017-10-16T11:00:03.017Z,22.60
2017-10-16T11:02:31.426Z,22.30
2017-10-16T11:04:59.019Z,22.20
2017-10-16T11:07:26.737Z,22.30
2017-10-16T11:09:54.466Z,22.20
2017-10-16T11:12:22.072Z,22.20
2017-10-16T11:14:49.694Z,22.20
2017-10-16T11:17:17.458Z,22.20
2017-10-16T11:19:46.063Z,22.20
2017-10-16T11:22:13.674Z,22.20
2017-10-16T11:24:41.319Z,22.20
2017-10-16T11:27:08.914Z,22.30
2017-10-16T11:29:36.790Z,22.40
2017-10-16T11:32:04.422Z,22.40
2017-10-16T11:34:32.034Z,22.40
2017-10-16T11:36:59.633Z,22.30
2017-10-16T11:39:27.282Z,22.30
2017-10-16T11:41:54.889Z,22.40
2017-10-16T11:44:22.503Z,22.40
2017-10-16T11:46:50.922Z,22.40
2017-10-16T11:49:18.556Z,22.40
2017-10-16T11:51:46.274Z,22.40
2017-10-16T11:54:13.917Z,22.40
2017-10-16T11:56:41.524Z,22.30
2017-10-16T11:59:09.129Z,22.30
2017-10-16T12:01:36.949Z,22.30
2017-10-16T12:04:05.326Z,22.30
2017-10-16T12:06:33.704Z,22.40
2017-10-16T12:09:01.345Z,22.40
2017-10-16T12:11:28.953Z,22.60
2017-10-16T12:13:56.555Z,22.80
2017-10-16T12:16:24.199Z,23.10
2017-10-16T12:18:51.815Z,23.10
2017-10-16T12:21:20.193Z,22.70
2017-10-16T12:23:47.846Z,22.70
2017-10-16T12:26:15.459Z,22.70
2017-10-16T12:28:43.831Z,22.60
2017-10-16T12:31:12.246Z,22.70
2017-10-16T12:33:39.856Z,22.70
2017-10-16T12:36:07.453Z,22.80
2017-10-16T12:38:35.090Z,22.80
2017-10-16T12:41:02.971Z,22.70
2017-10-16T12:43:30.611Z,22.70
2017-10-16T12:45:58.260Z,22.70
2017-10-16T12:48:25.914Z,22.70
2017-10-16T12:50:53.510Z,22.80
2017-10-16T12:53:21.156Z,22.80
2017-10-16T12:55:48.773Z,22.70
2017-10-16T12:58:16.374Z,22.90
2017-10-16T13:00:44.028Z,23.00
2017-10-16T13:03:11.678Z,23.10
2017-10-16T13:05:39.286Z,23.30
2017-10-16T13:08:06.952Z,23.50
2017-10-16T13:10:34.562Z,23.70
2017-10-16T13:13:02.158Z,23.90
2017-10-16T13:15:29.797Z,24.20
2017-10-16T13:17:57.398Z,25.10
2017-10-16T13:20:25.002Z,26.10
2017-10-16T13:22:52.622Z,26.40
2017-10-16T13:25:20.218Z,27.00
2017-10-16T13:27:48.633Z,28.10
2017-10-16T13:30:16.364Z,28.00
2017-10-16T13:32:43.953Z,28.60
2017-10-16T13:35:11.579Z,28.90
2017-10-16T13:37:39.215Z,28.60
2017-10-16T13:40:06.929Z,28.80
2017-10-16T13:42:34.542Z,28.70
2017-10-16T13:45:02.204Z,28.90
2017-10-16T13:47:30.563Z,28.60
2017-10-16T13:49:58.927Z,27.90
2017-10-16T13:52:27.343Z,27.10
2017-10-16T13:54:54.999Z,27.00
2017-10-16T13:57:22.603Z,26.30
2017-10-16T13:59:50.238Z,25.80
2017-10-16T14:02:18.632Z,24.80
2017-10-16T14:04:46.312Z,24.70
2017-10-16T14:07:28.835Z,24.40
2017-10-16T14:09:57.494Z,23.60
2017-10-16T14:12:25.188Z,23.50
2017-10-16T14:14:52.938Z,23.50
2017-10-16T14:17:20.551Z,23.20
2017-10-16T14:19:48.172Z,23.10
2017-10-16T14:22:16.000Z,23.00
2017-10-16T14:24:43.596Z,23.00
2017-10-16T14:27:11.218Z,22.70
2017-10-16T14:29:38.900Z,22.50
2017-10-16T14:32:06.509Z,22.50
2017-10-16T14:34:34.186Z,22.20
2017-10-16T14:37:01.814Z,22.20
2017-10-16T14:39:29.445Z,22.10
2017-10-16T14:41:59.241Z,22.00
2017-10-16T14:44:26.943Z,21.90
2017-10-16T14:46:54.551Z,21.80
2017-10-16T14:49:22.922Z,21.60
2017-10-16T14:51:50.564Z,21.60
2017-10-16T14:54:18.155Z,21.50
2017-10-16T14:56:45.853Z,21.30
2017-10-16T14:59:13.587Z,21.40
2017-10-16T15:01:41.310Z,21.30
2017-10-16T15:04:08.924Z,21.10
2017-10-16T15:06:37.414Z,21.00
2017-10-16T15:09:05.023Z,20.90
2017-10-16T15:11:33.414Z,20.60
2017-10-16T15:14:01.235Z,20.50
2017-10-16T15:16:29.641Z,20.40
2017-10-16T15:18:57.431Z,20.30
2017-10-16T15:21:25.305Z,20.30
2017-10-16T15:23:53.001Z,20.30
2017-10-16T15:26:20.598Z,20.20
2017-10-16T15:28:48.230Z,20.00
2017-10-16T15:31:16.886Z,19.80
2017-10-16T15:33:46.335Z,19.70
2017-10-16T15:36:14.071Z,19.70
2017-10-16T15:38:41.684Z,19.60
2017-10-16T15:41:09.377Z,19.40
2017-10-16T15:43:37.062Z,19.30
2017-10-16T15:46:04.664Z,19.20
2017-10-16T15:48:32.279Z,19.00
2017-10-16T15:51:00.683Z,18.80
2017-10-16T15:53:29.784Z,18.70
2017-10-16T15:55:58.341Z,18.60
2017-10-16T15:58:26.692Z,18.50
2017-10-16T16:00:54.334Z,18.40
2017-10-16T16:03:21.958Z,18.30
2017-10-16T16:05:49.594Z,18.10
2017-10-16T16:08:17.975Z,18.00
2017-10-16T16:10:45.812Z,17.90
2017-10-16T16:13:14.227Z,17.70
2017-10-16T16:15:41.984Z,17.60
2017-10-16T16:18:09.642Z,17.60
2017-10-16T16:20:37.276Z,17.40
2017-10-16T16:23:04.885Z,17.40
2017-10-16T16:25:32.564Z,17.30
2017-10-16T16:28:00.386Z,17.20
2017-10-16T16:30:27.995Z,17.10
2017-10-16T16:32:56.358Z,16.90
2017-10-16T16:35:24.027Z,16.80
2017-10-16T16:37:51.656Z,16.80
2017-10-16T16:40:19.286Z,16.70
2017-10-16T16:42:46.939Z,16.60
2017-10-16T16:45:15.373Z,16.50
2017-10-16T16:47:43.035Z,16.50
2017-10-16T16:50:11.467Z,16.30
2017-10-16T16:52:39.294Z,16.20
2017-10-16T16:55:07.057Z,16.10
2017-10-16T16:57:34.731Z,16.10
2017-10-16T17:00:02.367Z,16.00
2017-10-16T17:02:29.999Z,15.90
2017-10-16T17:04:57.671Z,15.90
2017-10-16T17:07:25.379Z,15.80
2017-10-16T17:09:53.076Z,15.80
2017-10-16T17:12:20.745Z,15.70
2017-10-16T17:14:48.392Z,15.70
2017-10-16T17:17:16.254Z,15.60
2017-10-16T17:19:43.934Z,15.50
2017-10-16T17:22:11.595Z,15.40
2017-10-16T17:24:39.219Z,15.40
2017-10-16T17:27:06.917Z,15.40
2017-10-16T17:29:34.621Z,15.30
2017-10-16T17:32:05.013Z,15.20
2017-10-16T17:34:33.027Z,15.10
2017-10-16T17:37:01.458Z,15.00
2017-10-16T17:39:29.422Z,15.00
2017-10-16T17:41:57.423Z,15.10
2017-10-16T17:44:25.629Z,15.00
2017-10-16T17:46:53.282Z,15.00
2017-10-16T17:49:20.970Z,14.90
2017-10-16T17:51:48.610Z,14.90
2017-10-16T17:54:17.027Z,14.80
2017-10-16T17:56:44.697Z,14.70
2017-10-16T17:59:12.399Z,14.70
2017-10-16T18:01:40.841Z,14.70
2017-10-16T18:04:09.304Z,14.70
2017-10-16T18:06:38.362Z,14.70
2017-10-16T18:09:08.243Z,14.70
2017-10-16T18:11:39.401Z,14.60
2017-10-16T18:14:08.864Z,14.50
2017-10-16T18:16:37.034Z,14.50
2017-10-16T18:19:05.487Z,14.50
2017-10-16T18:21:33.729Z,14.40
2017-10-16T18:24:01.419Z,14.40
2017-10-16T18:26:29.517Z,14.40
2017-10-16T18:28:57.533Z,14.30
2017-10-16T18:31:25.241Z,14.30
2017-10-16T18:33:52.999Z,14.30
2017-10-16T18:36:21.455Z,14.30
2017-10-16T18:38:49.405Z,14.20
2017-10-16T18:41:17.108Z,14.20
2017-10-16T18:43:44.821Z,14.10
2017-10-16T18:46:12.486Z,14.10
2017-10-16T18:48:40.166Z,14.00
2017-10-16T18:51:07.837Z,13.90
2017-10-16T18:53:35.515Z,13.90
2017-10-16T18:56:03.257Z,13.90
2017-10-16T18:58:30.903Z,13.80
2017-10-16T19:00:58.533Z,13.80
2017-10-16T19:03:26.335Z,13.90
2017-10-16T19:05:55.774Z,13.70
2017-10-16T19:08:23.462Z,13.70
2017-10-16T19:10:51.890Z,13.70
2017-10-16T19:13:19.583Z,13.60
2017-10-16T19:15:48.043Z,13.60
2017-10-16T19:18:15.831Z,13.60
2017-10-16T19:20:43.528Z,13.60
2017-10-16T19:23:11.191Z,13.60
2017-10-16T19:25:39.671Z,13.50
2017-10-16T19:28:07.367Z,13.40
2017-10-16T19:30:35.049Z,13.50
2017-10-16T19:33:02.805Z,13.50
2017-10-16T19:35:31.216Z,13.40
2017-10-16T19:37:58.846Z,13.30
2017-10-16T19:40:29.186Z,13.40
2017-10-16T19:43:01.500Z,13.40
2017-10-16T19:45:34.923Z,13.30
2017-10-16T19:48:03.018Z,13.20
2017-10-16T19:50:34.967Z,13.20
2017-10-16T19:53:03.497Z,13.20
2017-10-16T19:55:33.808Z,13.20
2017-10-16T19:58:02.263Z,13.10
2017-10-16T20:00:30.258Z,13.00
2017-10-16T20:03:01.842Z,13.10
2017-10-16T20:05:32.839Z,13.10
2017-10-16T20:08:03.185Z,13.00
2017-10-16T20:10:32.873Z,13.00
2017-10-16T20:13:01.316Z,13.00
2017-10-16T20:15:29.026Z,12.90
2017-10-16T20:17:59.286Z,12.90
2017-10-16T20:20:27.878Z,12.90
2017-10-16T20:22:55.602Z,12.90
2017-10-16T20:25:23.321Z,12.90
2017-10-16T20:27:53.551Z,12.90
2017-10-16T20:30:21.234Z,12.80
2017-10-16T20:32:49.684Z,12.80
2017-10-16T20:35:17.573Z,12.80
2017-10-16T20:37:47.014Z,12.80
2017-10-16T20:40:16.087Z,12.70
2017-10-16T20:42:43.974Z,12.70
2017-10-16T20:45:16.398Z,12.60
2017-10-16T20:47:46.162Z,12.70
2017-10-16T20:50:17.717Z,12.60
2017-10-16T20:52:46.791Z,12.60
2017-10-16T20:55:17.066Z,12.50
2017-10-16T20:57:46.697Z,12.50
2017-10-16T21:00:18.072Z,12.50
2017-10-16T21:02:47.574Z,12.60
2017-10-16T21:05:16.919Z,12.60
2017-10-16T21:07:50.225Z,12.60
2017-10-16T21:10:17.918Z,12.50
2017-10-16T21:12:46.334Z,12.50
2017-10-16T21:15:13.997Z,12.40
2017-10-16T21:17:44.684Z,12.40
2017-10-16T21:20:12.311Z,12.40
2017-10-16T21:22:39.990Z,12.30
2017-10-16T21:25:07.609Z,12.30
2017-10-16T21:27:35.272Z,12.30
2017-10-16T21:30:02.946Z,12.20
2017-10-16T21:32:30.567Z,12.20
2017-10-16T21:34:58.194Z,12.20
2017-10-16T21:37:25.877Z,12.20
2017-10-16T21:39:53.491Z,12.20
2017-10-16T21:42:21.160Z,12.20
2017-10-16T21:44:48.826Z,12.10
2017-10-16T21:47:16.455Z,12.00
2017-10-16T21:49:44.087Z,12.10
2017-10-16T21:52:11.746Z,12.00
2017-10-16T21:54:39.385Z,12.00
2017-10-16T21:57:07.470Z,12.00
2017-10-16T21:59:35.203Z,12.00
2017-10-16T22:02:02.954Z,12.00
2017-10-16T22:04:30.587Z,12.00
2017-10-16T22:06:58.252Z,12.10
2017-10-16T22:09:25.923Z,12.00
2017-10-16T22:11:53.549Z,11.90
2017-10-16T22:14:21.205Z,11.90
2017-10-16T22:16:48.830Z,11.90
2017-10-16T22:19:16.461Z,11.90
2017-10-16T22:21:44.130Z,11.80
2017-10-16T22:24:11.752Z,11.80
2017-10-16T22:26:39.387Z,11.80
2017-10-16T22:29:07.201Z,11.80
2017-10-16T22:31:34.834Z,11.80
2017-10-16T22:34:02.521Z,11.70
2017-10-16T22:36:30.473Z,11.70
2017-10-16T22:38:58.107Z,11.70
2017-10-16T22:41:26.489Z,11.70
2017-10-16T22:43:54.462Z,11.60
2017-10-16T22:46:22.082Z,11.70
2017-10-16T22:48:51.778Z,11.70
2017-10-16T22:51:20.204Z,11.70
2017-10-16T22:54:00.568Z,11.60
2017-10-16T22:56:28.222Z,11.70
2017-10-16T22:58:56.621Z,11.60
2017-10-16T23:01:24.258Z,11.60
2017-10-16T23:03:51.902Z,11.50
2017-10-16T23:06:19.535Z,11.50
2017-10-16T23:08:47.958Z,11.50
2017-10-16T23:11:15.802Z,11.40
2017-10-16T23:13:43.434Z,11.50
2017-10-16T23:16:11.082Z,11.50
2017-10-16T23:18:39.063Z,11.50
2017-10-16T23:21:06.781Z,11.50
2017-10-16T23:23:34.406Z,11.40
2017-10-16T23:26:02.067Z,11.30
2017-10-16T23:28:29.719Z,11.40
2017-10-16T23:30:57.354Z,11.40
2017-10-16T23:33:25.014Z,11.40
2017-10-16T23:35:52.646Z,11.40
2017-10-16T23:38:20.274Z,11.40
2017-10-16T23:40:47.918Z,11.50
2017-10-16T23:43:15.637Z,11.50
2017-10-16T23:45:43.290Z,11.40
2017-10-16T23:48:11.688Z,11.30
2017-10-16T23:50:39.322Z,11.20
2017-10-16T23:53:07.070Z,11.30
2017-10-16T23:55:35.471Z,11.30
2017-10-16T23:58:03.138Z,11.20
